Carlisle, Arkansas
Current Conditions -  °F | °C
As of 11:15 PM on Friday 28 Nov 2014 (Local Time) from KSGT Reporting Station
Broken Clouds Broken Clouds  
Wind Chill: 50°   Ceiling: 4200
Heat Index: 50°   Visibility: 10mi
Dew Point: 37°   Wind: 14mph
Humidity: 62%   Direction: 180°S
Pressure: 30.07"   Gusts: NA
Location:  34.78°N, 91.75°W
Report Text: KSGT 290515Z AUTO 18012KT 10SM BKN042 10/03 A3007 RMK AO1
Loading
Personal Weather Stations






























Interactive Weather Map New forecast layout! Learn more

10-Day Weather Forecast

Advertisements
Track Severe Weather on mobile